createdAt,value
2022-09-21T00:03:39.302Z,6.3
2022-09-21T00:08:39.417Z,6.3
2022-09-21T00:13:39.103Z,6.2
2022-09-21T00:18:39.708Z,6.2
2022-09-21T00:23:39.787Z,6.1
2022-09-21T00:28:39.021Z,6.1
2022-09-21T00:33:39.095Z,6.1
2022-09-21T00:38:39.237Z,6.1
2022-09-21T00:43:39.364Z,5.9
2022-09-21T00:48:39.637Z,5.9
2022-09-21T00:53:39.808Z,5.8
2022-09-21T00:58:39.052Z,5.8
2022-09-21T01:03:39.421Z,5.8
2022-09-21T01:08:39.618Z,5.8
2022-09-21T01:13:39.798Z,5.7
2022-09-21T01:18:38.901Z,5.7
2022-09-21T01:23:40.772Z,5.6
2022-09-21T01:28:39.601Z,5.6
2022-09-21T01:33:39.865Z,5.5
2022-09-21T01:38:39.226Z,5.5
2022-09-21T01:43:39.341Z,5.4
2022-09-21T01:48:39.476Z,5.4
2022-09-21T01:53:38.991Z,5.3
2022-09-21T01:58:39.543Z,5.3
2022-09-21T02:03:38.980Z,5.2
2022-09-21T02:08:39.093Z,5.2
2022-09-21T02:13:39.228Z,5.2
2022-09-21T02:18:39.559Z,5.2
2022-09-21T02:23:39.902Z,5.1
2022-09-21T02:28:38.998Z,5.1
2022-09-21T02:33:39.371Z,5.1
2022-09-21T02:38:39.439Z,5.1
2022-09-21T02:43:39.574Z,4.9
2022-09-21T02:48:39.806Z,4.9
2022-09-21T02:53:39.691Z,4.9
2022-09-21T02:58:39.503Z,4.9
2022-09-21T03:03:39.728Z,4.8
2022-09-21T03:08:39.490Z,4.8
2022-09-21T03:13:39.100Z,4.8
2022-09-21T03:18:39.251Z,4.8
2022-09-21T03:23:39.301Z,4.7
2022-09-21T03:28:39.702Z,4.7
2022-09-21T03:33:38.945Z,4.7
2022-09-21T03:38:39.369Z,4.7
2022-09-21T03:43:38.926Z,4.6
2022-09-21T03:48:39.742Z,4.6
2022-09-21T03:53:39.463Z,4.5
2022-09-21T03:58:39.838Z,4.5
2022-09-21T04:03:39.231Z,4.4
2022-09-21T04:08:39.454Z,4.4
2022-09-21T04:13:39.385Z,4.4
2022-09-21T04:18:39.123Z,4.4
2022-09-21T04:23:39.301Z,4.3
2022-09-21T04:28:39.528Z,4.3
2022-09-21T04:33:39.892Z,4.3
2022-09-21T04:38:40.250Z,4.3
2022-09-21T04:43:39.758Z,4.2
2022-09-21T04:48:39.508Z,4.2
2022-09-21T04:53:39.778Z,4.2
2022-09-21T04:58:39.224Z,4.2
2022-09-21T05:03:39.601Z,4.1
2022-09-21T05:08:39.172Z,4.1
2022-09-21T05:13:39.845Z,4.1
2022-09-21T05:18:39.111Z,4.1
2022-09-21T05:23:39.275Z,4
2022-09-21T05:28:40.386Z,4
2022-09-21T05:33:39.753Z,3.9
2022-09-21T05:38:39.850Z,3.9
2022-09-21T05:43:39.134Z,3.9
2022-09-21T05:48:39.327Z,3.9
2022-09-21T05:53:39.630Z,3.9
2022-09-21T05:58:39.645Z,3.9
2022-09-21T06:03:39.845Z,3.8
2022-09-21T06:08:39.903Z,3.8
2022-09-21T06:13:39.362Z,3.9
2022-09-21T06:18:39.787Z,3.9
2022-09-21T06:23:39.544Z,4
2022-09-21T06:28:39.950Z,4
2022-09-21T06:33:39.971Z,4.2
2022-09-21T06:38:39.113Z,4.2
2022-09-21T06:43:39.274Z,4.5
2022-09-21T06:48:39.515Z,4.5
2022-09-21T06:53:39.669Z,4.9
2022-09-21T06:58:39.865Z,4.9
2022-09-21T07:03:39.934Z,5.3
2022-09-21T07:13:39.433Z,5.9
2022-09-21T07:18:43.601Z,5.9
2022-09-21T07:23:39.628Z,6.6
2022-09-21T07:28:39.695Z,6.6
2022-09-21T07:33:39.901Z,7.3
2022-09-21T07:38:40.049Z,7.3
2022-09-21T07:43:39.241Z,8.1
2022-09-21T07:48:39.399Z,8.1
2022-09-21T07:53:39.558Z,9.1
2022-09-21T07:58:39.883Z,9.1
2022-09-21T08:03:39.956Z,10
2022-09-21T08:08:39.289Z,10
2022-09-21T08:13:39.363Z,10.7
2022-09-21T08:18:39.758Z,10.7
2022-09-21T08:23:39.874Z,11.3
2022-09-21T08:28:40.078Z,11.3
2022-09-21T08:33:39.516Z,11.5
2022-09-21T08:38:39.775Z,11.5
2022-09-21T08:43:39.855Z,11.8
2022-09-21T08:48:40.053Z,11.8
2022-09-21T08:53:40.095Z,12.4
2022-09-21T08:58:39.987Z,12.4
2022-09-21T09:03:41.536Z,13
2022-09-21T09:08:39.622Z,13
2022-09-21T09:13:40.073Z,13.8
2022-09-21T09:18:43.421Z,13.8
2022-09-21T09:23:40.068Z,14.8
2022-09-21T09:28:39.308Z,14.8
2022-09-21T09:33:39.984Z,15.1
2022-09-21T09:38:39.884Z,15.1
2022-09-21T09:43:39.644Z,15.3
2022-09-21T09:48:40.005Z,15.3
2022-09-21T09:53:39.513Z,15.7
2022-09-21T09:58:39.697Z,15.7
2022-09-21T10:03:39.280Z,16.4
2022-09-21T10:08:39.697Z,16.4
2022-09-21T10:13:39.671Z,16.7
2022-09-21T10:18:39.947Z,16.7
2022-09-21T10:23:40.117Z,16.5
2022-09-21T10:28:39.564Z,16.5
2022-09-21T10:33:39.809Z,16.5
2022-09-21T10:38:39.996Z,16.5
2022-09-21T10:43:43.541Z,16.8
2022-09-21T10:48:39.265Z,16.8
2022-09-21T10:53:39.559Z,17
2022-09-21T10:58:39.723Z,17
2022-09-21T11:03:39.919Z,17.5
2022-09-21T11:08:39.568Z,17.5
2022-09-21T11:13:39.665Z,17.7
2022-09-21T11:18:39.792Z,17.7
2022-09-21T11:23:39.884Z,18.2
2022-09-21T11:28:40.080Z,18.2
2022-09-21T11:33:40.321Z,18.5
2022-09-21T11:38:42.656Z,18.5
2022-09-21T11:43:39.582Z,18.8
2022-09-21T11:48:39.685Z,18.8
2022-09-21T11:53:39.892Z,19.1
2022-09-21T11:58:40.114Z,19.1
2022-09-21T12:03:39.254Z,19.2
2022-09-21T12:08:39.364Z,19.2
2022-09-21T12:13:39.604Z,18.8
2022-09-21T12:18:43.831Z,18.8
2022-09-21T12:23:39.616Z,19
2022-09-21T12:28:39.670Z,19
2022-09-21T12:33:39.972Z,19
2022-09-21T12:38:40.226Z,19
2022-09-21T12:43:39.785Z,19
2022-09-21T12:48:40.042Z,19
2022-09-21T12:53:40.176Z,19.1
2022-09-21T12:58:39.384Z,19.1
2022-09-21T13:03:39.684Z,19.1
2022-09-21T13:08:39.981Z,19.1
2022-09-21T13:13:39.254Z,19
2022-09-21T13:18:39.593Z,19
2022-09-21T13:23:40.061Z,18.9
2022-09-21T13:28:40.245Z,18.9
2022-09-21T13:33:39.493Z,18.9
2022-09-21T13:38:39.679Z,18.9
2022-09-21T13:43:39.859Z,19
2022-09-21T13:48:40.005Z,19
2022-09-21T13:53:40.048Z,18.9
2022-09-21T13:58:40.227Z,18.9
2022-09-21T14:03:39.363Z,18.5
2022-09-21T14:08:39.697Z,18.5
2022-09-21T14:13:39.910Z,18.4
2022-09-21T14:18:39.986Z,18.4
2022-09-21T14:23:40.047Z,18.6
2022-09-21T14:28:40.149Z,18.6
2022-09-21T14:33:39.438Z,18.7
2022-09-21T14:38:39.686Z,18.7
2022-09-21T14:43:39.837Z,18.8
2022-09-21T14:48:39.852Z,18.8
2022-09-21T14:53:39.411Z,18.8
2022-09-21T14:58:42.929Z,18.8
2022-09-21T15:03:39.495Z,18.9
2022-09-21T15:08:39.511Z,18.9
2022-09-21T15:13:39.987Z,18.8
2022-09-21T15:18:39.932Z,18.8
2022-09-21T15:23:40.031Z,18.6
2022-09-21T15:29:04.919Z,18.6
2022-09-21T15:33:39.967Z,18.3
2022-09-21T15:38:39.663Z,18.3
2022-09-21T15:43:40.089Z,17.9
2022-09-21T15:48:39.873Z,17.9
2022-09-21T15:53:39.511Z,17.7
2022-09-21T15:58:40.177Z,17.7
2022-09-21T16:03:39.925Z,17.3
2022-09-21T16:08:39.635Z,17.3
2022-09-21T16:13:39.894Z,17.1
2022-09-21T16:18:40.331Z,17.1
2022-09-21T16:23:39.523Z,16.8
2022-09-21T16:28:39.873Z,16.8
2022-09-21T16:33:39.789Z,16.6
2022-09-21T16:38:40.033Z,16.6
2022-09-21T16:43:40.268Z,16.3
2022-09-21T16:48:40.518Z,16.3
2022-09-21T16:53:39.850Z,16
2022-09-21T16:58:39.877Z,16
2022-09-21T17:03:40.099Z,15.7
2022-09-21T17:08:40.316Z,15.7
2022-09-21T17:13:39.604Z,15.4
2022-09-21T17:18:39.861Z,15.4
2022-09-21T17:23:39.991Z,15
2022-09-21T17:28:40.036Z,15
2022-09-21T17:33:40.282Z,14.5
2022-09-21T17:38:39.609Z,14.5
2022-09-21T17:43:39.797Z,14.1
2022-09-21T17:48:40.024Z,14.1
2022-09-21T17:53:40.206Z,13.7
2022-09-21T17:58:40.377Z,13.7
2022-09-21T18:03:39.650Z,13.4
2022-09-21T18:08:39.853Z,13.4
2022-09-21T18:13:39.907Z,13.1
2022-09-21T18:18:40.015Z,13.1
2022-09-21T18:23:40.345Z,12.8
2022-09-21T18:28:39.691Z,12.8
2022-09-21T18:33:39.811Z,12.6
2022-09-21T18:38:40.067Z,12.6
2022-09-21T18:43:40.212Z,12.4
2022-09-21T18:48:39.486Z,12.4
2022-09-21T18:53:39.697Z,12.3
2022-09-21T18:58:39.841Z,12.3
2022-09-21T19:03:40.012Z,12.2
2022-09-21T19:08:40.221Z,12.2
2022-09-21T19:13:40.300Z,12.1
2022-09-21T19:18:40.696Z,12.1
2022-09-21T19:23:39.925Z,11.9
2022-09-21T19:28:40.078Z,11.9
2022-09-21T19:33:49.461Z,11.9
2022-09-21T19:38:39.815Z,11.9
2022-09-21T19:43:39.936Z,11.8
2022-09-21T19:48:40.018Z,11.8
2022-09-21T19:53:40.354Z,11.7
2022-09-21T19:58:39.856Z,11.7
2022-09-21T20:03:40.145Z,11.6
2022-09-21T20:08:40.410Z,11.6
2022-09-21T20:13:39.609Z,11.6
2022-09-21T20:18:39.744Z,11.6
2022-09-21T20:23:39.794Z,11.6
2022-09-21T20:28:39.995Z,11.6
2022-09-21T20:33:40.187Z,11.5
2022-09-21T20:38:40.308Z,11.5
2022-09-21T20:43:39.716Z,11.4
2022-09-21T20:48:39.836Z,11.4
2022-09-21T20:53:39.955Z,11.3
2022-09-21T20:58:40.171Z,11.3
2022-09-21T21:03:39.923Z,11.2
2022-09-21T21:08:40.122Z,11.2
2022-09-21T21:13:40.360Z,11
2022-09-21T21:18:39.523Z,11
2022-09-21T21:23:39.834Z,10.8
2022-09-21T21:28:40.193Z,10.8
2022-09-21T21:33:40.613Z,10.6
2022-09-21T21:38:39.981Z,10.6
2022-09-21T21:43:40.154Z,10.3
2022-09-21T21:48:40.220Z,10.3
2022-09-21T21:53:40.383Z,10.2
2022-09-21T21:58:40.481Z,10.2
2022-09-21T22:03:39.783Z,10
2022-09-21T22:08:40.309Z,10
2022-09-21T22:13:39.810Z,9.8
2022-09-21T22:18:39.992Z,9.8
2022-09-21T22:23:40.370Z,9.8
2022-09-21T22:28:39.818Z,9.8
2022-09-21T22:33:40.033Z,9.7
2022-09-21T22:38:42.947Z,9.7
2022-09-21T22:43:40.318Z,9.6
2022-09-21T22:48:39.731Z,9.6
2022-09-21T22:53:40.561Z,9.5
2022-09-21T22:58:40.014Z,9.5
2022-09-21T23:03:40.282Z,9.4
2022-09-21T23:08:39.649Z,9.4
2022-09-21T23:13:43.642Z,9.3
2022-09-21T23:18:39.813Z,9.3
2022-09-21T23:23:40.031Z,9.3
2022-09-21T23:28:40.221Z,9.3
2022-09-21T23:33:40.479Z,9.2
2022-09-21T23:38:39.718Z,9.2
2022-09-21T23:43:40.247Z,9.1
2022-09-21T23:48:40.351Z,9.1
2022-09-21T23:53:40.515Z,8.9
2022-09-21T23:58:39.706Z,8.9
